createdAt,value
2018-08-09T00:00:14.937Z,97704.94
2018-08-09T00:00:46.541Z,97704.70
2018-08-09T00:01:18.137Z,97705.34
2018-08-09T00:01:49.764Z,97708.39
2018-08-09T00:02:21.355Z,97708.39
2018-08-09T00:02:52.952Z,97705.38
2018-08-09T00:03:24.550Z,97708.06
2018-08-09T00:03:56.136Z,97707.23
2018-08-09T00:04:27.710Z,97713.81
2018-08-09T00:04:59.295Z,97709.63
2018-08-09T00:05:30.929Z,97712.19
2018-08-09T00:06:02.526Z,97707.54
2018-08-09T00:06:34.116Z,97710.73
2018-08-09T00:07:05.713Z,97708.58
2018-08-09T00:07:37.299Z,97708.58
2018-08-09T00:08:08.901Z,97706.48
2018-08-09T00:08:40.487Z,97704.42
2018-08-09T00:09:12.072Z,97703.16
2018-08-09T00:09:43.659Z,97708.81
2018-08-09T00:10:15.253Z,97673.17
2018-08-09T00:10:46.893Z,97703.81
2018-08-09T00:11:18.493Z,97709.95
2018-08-09T00:11:50.096Z,97708.77
2018-08-09T00:12:21.675Z,97712.84
2018-08-09T00:12:53.268Z,97709.95
2018-08-09T00:13:24.845Z,97710.55
2018-08-09T00:13:56.439Z,97711.90
2018-08-09T00:14:28.023Z,97714.05
2018-08-09T00:14:59.599Z,97704.11
2018-08-09T00:15:31.187Z,97716.19
2018-08-09T00:16:02.801Z,97714.25
2018-08-09T00:16:34.398Z,97713.72
2018-08-09T00:17:05.973Z,97708.89
2018-08-09T00:17:37.570Z,97715.16
2018-08-09T00:18:09.163Z,97709.02
2018-08-09T00:18:40.763Z,97717.83
2018-08-09T00:19:12.351Z,97710.79
2018-08-09T00:19:43.949Z,97712.99
2018-08-09T00:20:15.535Z,97712.41
2018-08-09T00:20:47.120Z,97718.49
2018-08-09T00:21:18.757Z,97711.88
2018-08-09T00:21:50.353Z,97714.55
2018-08-09T00:22:21.939Z,97707.34
2018-08-09T00:22:53.538Z,97706.63
2018-08-09T00:23:25.137Z,97710.91
2018-08-09T00:23:56.845Z,97707.27
2018-08-09T00:24:28.363Z,97710.72
2018-08-09T00:24:59.947Z,97706.13
2018-08-09T00:25:31.544Z,97705.78
2018-08-09T00:26:03.181Z,97707.18
2018-08-09T00:26:34.754Z,97701.16
2018-08-09T00:27:06.338Z,97706.30
2018-08-09T00:27:37.937Z,97702.05
2018-08-09T00:28:09.527Z,97704.27
2018-08-09T00:28:41.112Z,97699.20
2018-08-09T00:29:12.713Z,97707.72
2018-08-09T00:29:44.339Z,97705.92
2018-08-09T00:30:15.919Z,97699.37
2018-08-09T00:30:47.513Z,97704.32
2018-08-09T00:31:19.099Z,97704.39
2018-08-09T00:31:50.697Z,97700.98
2018-08-09T00:32:22.298Z,97700.20
2018-08-09T00:32:53.879Z,97692.98
2018-08-09T00:33:25.512Z,97701.23
2018-08-09T00:33:57.110Z,97698.42
2018-08-09T00:34:28.695Z,97690.69
2018-08-09T00:35:00.291Z,97701.33
2018-08-09T00:35:31.883Z,97690.27
2018-08-09T00:36:03.468Z,97695.73
2018-08-09T00:36:35.066Z,97696.09
2018-08-09T00:37:06.661Z,97692.56
2018-08-09T00:37:38.257Z,97694.59
2018-08-09T00:38:09.858Z,97691.58
2018-08-09T00:38:41.491Z,97698.52
2018-08-09T00:39:13.089Z,97692.64
2018-08-09T00:39:44.675Z,97692.63
2018-08-09T00:40:16.279Z,97694.22
2018-08-09T00:40:47.883Z,97691.48
2018-08-09T00:41:19.481Z,97695.88
2018-08-09T00:41:51.067Z,97692.52
2018-08-09T00:42:22.655Z,97694.59
2018-08-09T00:42:54.253Z,97690.31
2018-08-09T00:43:25.849Z,97689.02
2018-08-09T00:43:57.440Z,97697.11
2018-08-09T00:44:29.117Z,97692.77
2018-08-09T00:45:00.703Z,97696.20
2018-08-09T00:45:32.291Z,97696.25
2018-08-09T00:46:03.906Z,97693.69
2018-08-09T00:46:35.505Z,97699.70
2018-08-09T00:47:07.081Z,97695.13
2018-08-09T00:47:38.668Z,97689.19
2018-08-09T00:48:10.246Z,97695.53
2018-08-09T00:48:41.889Z,97690.05
2018-08-09T00:49:13.475Z,97694.86
2018-08-09T00:49:45.073Z,97693.16
2018-08-09T00:50:16.660Z,97693.84
2018-08-09T00:50:48.252Z,97688.23
2018-08-09T00:51:19.840Z,97688.42
2018-08-09T00:51:51.478Z,97690.03
2018-08-09T00:52:23.064Z,97694.33
2018-08-09T00:52:54.649Z,97698.28
2018-08-09T00:53:26.241Z,97690.67
2018-08-09T00:53:57.857Z,97690.81
2018-08-09T00:54:29.461Z,97690.50
2018-08-09T00:55:01.102Z,97690.09
2018-08-09T00:55:32.700Z,97687.70
2018-08-09T00:56:04.281Z,97692.05
2018-08-09T00:56:35.877Z,97686.97
2018-08-09T00:57:07.463Z,97688.19
2018-08-09T00:57:39.073Z,97688.47
2018-08-09T00:58:10.662Z,97687.06
2018-08-09T00:58:42.243Z,97689.95
2018-08-09T00:59:13.830Z,97683.98
2018-08-09T00:59:45.415Z,97685.46
2018-08-09T01:00:17.043Z,97686.42
2018-08-09T01:00:48.623Z,97686.47
2018-08-09T01:01:20.211Z,97682.09
2018-08-09T01:01:51.790Z,97684.62
2018-08-09T01:02:23.400Z,97686.63
2018-08-09T01:02:54.990Z,97687.41
2018-08-09T01:03:26.628Z,97683.45
2018-08-09T01:03:58.228Z,97686.82
2018-08-09T01:04:29.815Z,97682.45
2018-08-09T01:05:01.397Z,97685.88
2018-08-09T01:05:32.979Z,97681.75
2018-08-09T01:06:04.557Z,97682.62
2018-08-09T01:06:36.143Z,97681.91
2018-08-09T01:07:07.745Z,97682.70
2018-08-09T01:07:39.357Z,97680.34
2018-08-09T01:08:10.956Z,97676.72
2018-08-09T01:08:42.541Z,97675.09
2018-08-09T01:09:14.127Z,97674.80
2018-08-09T01:09:45.716Z,97676.61
2018-08-09T01:10:17.307Z,97673.72
2018-08-09T01:10:48.891Z,97669.48
2018-08-09T01:11:20.478Z,97667.55
2018-08-09T01:11:52.049Z,97668.81
2018-08-09T01:12:23.639Z,97665.00
2018-08-09T01:12:55.282Z,97669.72
2018-08-09T01:13:26.875Z,97668.05
2018-08-09T01:13:58.463Z,97670.12
2018-08-09T01:14:30.034Z,97671.16
2018-08-09T01:15:01.620Z,97670.17
2018-08-09T01:15:33.194Z,97673.16
2018-08-09T01:16:04.788Z,97670.96
2018-08-09T01:16:36.443Z,97673.16
2018-08-09T01:17:08.027Z,97683.80
2018-08-09T01:17:39.659Z,97675.31
2018-08-09T01:18:11.243Z,97672.02
2018-08-09T01:18:42.861Z,97677.72
2018-08-09T01:19:14.458Z,97676.37
2018-08-09T01:19:46.067Z,97671.69
2018-08-09T01:20:17.677Z,97672.55
2018-08-09T01:20:49.267Z,97676.08
2018-08-09T01:21:20.865Z,97634.37
2018-08-09T01:21:52.451Z,97673.75
2018-08-09T01:22:24.045Z,97674.37
2018-08-09T01:22:55.641Z,97678.76
2018-08-09T01:23:27.230Z,97673.45
2018-08-09T01:23:58.879Z,97675.65
2018-08-09T01:24:30.472Z,97683.69
2018-08-09T01:25:02.051Z,97680.66
2018-08-09T01:25:33.689Z,97678.42
2018-08-09T01:26:05.326Z,97676.12
2018-08-09T01:26:36.901Z,97678.55
2018-08-09T01:27:08.481Z,97680.22
2018-08-09T01:27:40.059Z,97679.41
2018-08-09T01:28:11.658Z,97678.09
2018-08-09T01:28:43.249Z,97677.23
2018-08-09T01:29:14.835Z,97678.45
2018-08-09T01:29:46.442Z,97668.58
2018-08-09T01:30:18.042Z,97674.38
2018-08-09T01:30:49.632Z,97675.95
2018-08-09T01:31:21.265Z,97674.65
2018-08-09T01:31:52.871Z,97679.70
2018-08-09T01:32:24.483Z,97675.66
2018-08-09T01:32:56.146Z,97676.50
2018-08-09T01:33:27.687Z,97679.44
2018-08-09T01:33:59.320Z,97678.28
2018-08-09T01:34:30.921Z,97681.75
2018-08-09T01:35:02.519Z,97679.38
2018-08-09T01:35:34.116Z,97677.55
2018-08-09T01:36:05.703Z,97677.45
2018-08-09T01:36:37.297Z,97683.25
2018-08-09T01:37:08.932Z,97680.88
2018-08-09T01:37:40.535Z,97681.95
2018-08-09T01:38:12.134Z,97685.06
2018-08-09T01:38:43.734Z,97680.89
2018-08-09T01:39:15.324Z,97691.25
2018-08-09T01:39:46.907Z,97684.95
2018-08-09T01:40:18.505Z,97687.91
2018-08-09T01:40:50.109Z,97688.27
2018-08-09T01:41:21.729Z,97689.22
2018-08-09T01:41:53.297Z,97689.64
2018-08-09T01:42:24.869Z,97688.68
2018-08-09T01:42:56.455Z,97689.88
2018-08-09T01:43:28.049Z,97691.55
2018-08-09T01:43:59.636Z,97685.03
2018-08-09T01:44:31.233Z,97695.98
2018-08-09T01:45:02.872Z,97688.69
2018-08-09T01:45:34.469Z,97685.72
2018-08-09T01:46:06.060Z,97692.00
2018-08-09T01:46:37.647Z,97689.88
2018-08-09T01:47:09.235Z,97692.09
2018-08-09T01:47:40.820Z,97694.58
2018-08-09T01:48:12.407Z,97689.86
2018-08-09T01:48:44.001Z,97694.13
2018-08-09T01:49:15.577Z,97690.73
2018-08-09T01:49:47.173Z,97685.23
2018-08-09T01:50:18.809Z,97695.84
2018-08-09T01:50:50.386Z,97694.96
2018-08-09T01:51:21.961Z,97697.98
2018-08-09T01:51:53.543Z,97699.25
2018-08-09T01:52:25.146Z,97697.97
2018-08-09T01:52:56.732Z,97695.33
2018-08-09T01:53:28.316Z,97694.10
2018-08-09T01:53:59.906Z,97699.30
2018-08-09T01:54:31.491Z,97695.41
2018-08-09T01:55:03.119Z,97699.16
2018-08-09T01:55:34.772Z,97696.17
2018-08-09T01:56:06.345Z,97698.28
2018-08-09T01:56:37.932Z,97694.89
2018-08-09T01:57:09.511Z,97694.87
2018-08-09T01:57:41.098Z,97696.52
2018-08-09T01:58:12.673Z,97691.53
2018-08-09T01:58:44.263Z,97697.36
2018-08-09T01:59:15.847Z,97696.48
2018-08-09T01:59:47.438Z,97693.52
2018-08-09T02:00:19.022Z,97693.09
2018-08-09T02:00:50.607Z,97695.23
2018-08-09T02:01:22.191Z,97694.81
2018-08-09T02:01:53.765Z,97695.23
2018-08-09T02:02:25.361Z,97688.05
2018-08-09T02:02:56.951Z,97694.87
2018-08-09T02:03:28.525Z,97694.05
2018-08-09T02:04:00.107Z,97691.69
2018-08-09T02:04:31.764Z,97693.14
2018-08-09T02:05:03.342Z,97691.45
2018-08-09T02:05:34.921Z,97693.26
2018-08-09T02:06:06.551Z,97692.51
2018-08-09T02:06:38.139Z,97697.20
2018-08-09T02:07:09.724Z,97693.28
2018-08-09T02:07:41.341Z,97695.84
2018-08-09T02:08:12.914Z,97696.36
2018-08-09T02:08:44.500Z,97692.95
2018-08-09T02:09:16.079Z,97695.86
2018-08-09T02:09:47.682Z,97693.26
2018-08-09T02:10:19.267Z,97689.03
2018-08-09T02:10:50.855Z,97694.23
2018-08-09T02:11:22.447Z,97692.51
2018-08-09T02:11:54.097Z,97695.02
2018-08-09T02:12:25.687Z,97693.02
2018-08-09T02:12:57.275Z,97688.77
2018-08-09T02:13:28.859Z,97693.46
2018-08-09T02:14:00.453Z,97690.84
2018-08-09T02:14:32.040Z,97690.80
2018-08-09T02:15:03.636Z,97689.89
2018-08-09T02:15:35.236Z,97685.61
2018-08-09T02:16:06.837Z,97684.77
2018-08-09T02:16:38.471Z,97685.72
2018-08-09T02:17:10.061Z,97688.08
2018-08-09T02:17:41.657Z,97687.50
2018-08-09T02:18:13.246Z,97692.61
2018-08-09T02:18:44.835Z,97684.33
2018-08-09T02:19:16.429Z,97695.39
2018-08-09T02:19:48.033Z,97691.12
2018-08-09T02:20:19.635Z,97694.35
2018-08-09T02:20:51.223Z,97699.39
2018-08-09T02:21:22.810Z,97696.03
2018-08-09T02:21:54.446Z,97692.14
2018-08-09T02:22:26.049Z,97698.11
2018-08-09T02:22:57.651Z,97700.23
2018-08-09T02:23:29.239Z,97700.23
2018-08-09T02:24:00.818Z,97700.56
2018-08-09T02:24:32.457Z,97700.48
2018-08-09T02:25:04.061Z,97700.95
2018-08-09T02:25:35.665Z,97697.90
2018-08-09T02:26:07.259Z,97692.25
2018-08-09T02:26:38.897Z,97692.02
2018-08-09T02:27:10.481Z,97694.40
2018-08-09T02:27:42.081Z,97687.95
2018-08-09T02:28:13.658Z,97693.09
2018-08-09T02:28:45.243Z,97690.92
2018-08-09T02:29:16.849Z,97685.41
2018-08-09T02:29:48.482Z,97687.74
2018-08-09T02:30:20.072Z,97684.20
2018-08-09T02:30:51.649Z,97687.33
2018-08-09T02:31:23.246Z,97693.42
2018-08-09T02:31:54.829Z,97688.41
2018-08-09T02:32:26.416Z,97682.63
2018-08-09T02:32:58.012Z,97691.69
2018-08-09T02:33:29.600Z,97688.97
2018-08-09T02:34:01.202Z,97687.80
2018-08-09T02:34:32.799Z,97693.46
2018-08-09T02:35:04.427Z,97682.59
2018-08-09T02:35:36.005Z,97684.11
2018-08-09T02:36:07.606Z,97684.28
2018-08-09T02:36:39.201Z,97686.54
2018-08-09T02:37:10.791Z,97680.05
2018-08-09T02:37:42.389Z,97677.05
2018-08-09T02:38:13.980Z,97676.60
2018-08-09T02:38:45.564Z,97677.65
2018-08-09T02:39:17.152Z,97678.32
2018-08-09T02:39:48.725Z,97684.19
2018-08-09T02:40:20.321Z,97679.33
2018-08-09T02:40:51.907Z,97688.27
2018-08-09T02:41:23.493Z,97681.79
2018-08-09T02:41:55.098Z,97684.02
2018-08-09T02:42:26.688Z,97686.16
2018-08-09T02:42:58.286Z,97687.08
2018-08-09T02:43:29.875Z,97689.69
2018-08-09T02:44:01.472Z,97686.04
2018-08-09T02:44:33.073Z,97686.67
2018-08-09T02:45:04.715Z,97693.80
2018-08-09T02:45:36.328Z,97688.92
2018-08-09T02:46:07.930Z,97687.33
2018-08-09T02:46:39.546Z,97691.67
2018-08-09T02:47:11.193Z,97692.63
2018-08-09T02:47:42.789Z,97698.18
2018-08-09T02:48:14.388Z,97694.84
2018-08-09T02:48:45.997Z,97697.36
2018-08-09T02:49:17.594Z,97695.56
2018-08-09T02:49:49.242Z,97687.75
2018-08-09T02:50:20.878Z,97696.67
2018-08-09T02:50:52.526Z,97699.59
2018-08-09T02:51:24.112Z,97696.61
2018-08-09T02:51:55.700Z,97704.97
2018-08-09T02:52:27.301Z,97703.26
2018-08-09T02:52:58.891Z,97697.38
2018-08-09T02:53:30.475Z,97701.53
2018-08-09T02:54:02.077Z,97700.33
2018-08-09T02:54:33.653Z,97702.72
2018-08-09T02:55:05.257Z,97703.89
2018-08-09T02:55:36.851Z,97702.94
2018-08-09T02:56:08.486Z,97688.03
2018-08-09T02:56:40.086Z,97703.41
2018-08-09T02:57:11.685Z,97708.56
2018-08-09T02:57:43.270Z,97705.08
2018-08-09T02:58:14.851Z,97704.83
2018-08-09T02:58:46.449Z,97710.75
2018-08-09T02:59:18.058Z,97710.30
2018-08-09T02:59:49.647Z,97711.55
2018-08-09T03:00:21.266Z,97713.50
2018-08-09T03:00:52.916Z,97713.77
2018-08-09T03:01:24.504Z,97708.09
2018-08-09T03:01:56.089Z,97709.36
2018-08-09T03:02:27.694Z,97711.94
2018-08-09T03:02:59.310Z,97719.45
2018-08-09T03:03:30.895Z,97716.67
2018-08-09T03:04:02.489Z,97716.56
2018-08-09T03:04:34.088Z,97717.52
2018-08-09T03:05:05.685Z,97715.11
2018-08-09T03:05:37.294Z,97715.27
2018-08-09T03:06:08.920Z,97717.55
2018-08-09T03:06:40.566Z,97715.90
2018-08-09T03:07:12.141Z,97716.88
2018-08-09T03:07:43.737Z,97717.42
2018-08-09T03:08:15.323Z,97718.38
2018-08-09T03:08:46.908Z,97714.81
2018-08-09T03:09:18.501Z,97716.00
2018-08-09T03:09:50.088Z,97701.55
2018-08-09T03:10:21.685Z,97714.87
2018-08-09T03:10:53.282Z,97715.78
2018-08-09T03:11:24.949Z,97716.20
2018-08-09T03:11:56.544Z,97714.52
2018-08-09T03:12:28.145Z,97712.36
2018-08-09T03:12:59.744Z,97719.19
2018-08-09T03:13:31.331Z,97716.02
2018-08-09T03:14:02.914Z,97710.01
2018-08-09T03:14:34.499Z,97711.56
2018-08-09T03:15:06.196Z,97710.25
2018-08-09T03:15:37.797Z,97710.61
2018-08-09T03:16:09.385Z,97711.03
2018-08-09T03:16:41.013Z,97706.42
2018-08-09T03:17:12.665Z,97714.46
2018-08-09T03:17:44.214Z,97709.33
2018-08-09T03:18:15.794Z,97718.29
2018-08-09T03:18:47.420Z,97715.17
2018-08-09T03:19:19.021Z,97711.02
2018-08-09T03:19:50.625Z,97713.16
2018-08-09T03:20:22.210Z,97717.73
2018-08-09T03:20:53.785Z,97715.61
2018-08-09T03:21:25.425Z,97711.75
2018-08-09T03:21:57.010Z,97711.02
2018-08-09T03:22:28.612Z,97709.92
2018-08-09T03:23:00.209Z,97710.61
2018-08-09T03:23:31.799Z,97711.78
2018-08-09T03:24:03.415Z,97712.11
2018-08-09T03:24:35.039Z,97715.50
2018-08-09T03:25:06.633Z,97713.45
2018-08-09T03:25:38.223Z,97711.84
2018-08-09T03:26:09.813Z,97716.98
2018-08-09T03:26:41.417Z,97716.05
2018-08-09T03:27:12.989Z,97713.13
2018-08-09T03:27:44.741Z,97716.16
2018-08-09T03:28:16.327Z,97720.06
2018-08-09T03:28:47.921Z,97715.75
2018-08-09T03:29:19.525Z,97716.03
2018-08-09T03:29:51.115Z,97721.14
2018-08-09T03:30:22.699Z,97718.58
2018-08-09T03:30:54.302Z,97721.25
2018-08-09T03:31:25.889Z,97713.36
2018-08-09T03:31:57.483Z,97722.78
2018-08-09T03:32:29.081Z,97724.53
2018-08-09T03:33:00.719Z,97723.80
2018-08-09T03:33:32.317Z,97724.80
2018-08-09T03:34:03.919Z,97722.48
2018-08-09T03:34:35.507Z,97720.38
2018-08-09T03:35:07.085Z,97732.36
2018-08-09T03:35:38.679Z,97723.58
2018-08-09T03:36:10.263Z,97726.14
2018-08-09T03:36:41.862Z,97722.63
2018-08-09T03:37:13.450Z,97724.13
2018-08-09T03:37:45.054Z,97726.27
2018-08-09T03:38:16.685Z,97726.66
2018-08-09T03:38:48.266Z,97727.08
2018-08-09T03:39:19.855Z,97726.61
2018-08-09T03:39:51.443Z,97727.96
2018-08-09T03:40:23.067Z,97723.27
2018-08-09T03:40:54.669Z,97729.59
2018-08-09T03:41:26.259Z,97733.53
2018-08-09T03:41:57.844Z,97730.21
2018-08-09T03:42:29.445Z,97731.49
2018-08-09T03:43:01.025Z,97729.70
2018-08-09T03:43:32.666Z,97736.33
2018-08-09T03:44:04.238Z,97734.09
2018-08-09T03:44:35.826Z,97732.01
2018-08-09T03:45:07.427Z,97738.09
2018-08-09T03:45:39.024Z,97740.78
2018-08-09T03:46:10.597Z,97740.38
2018-08-09T03:46:42.183Z,97736.63
2018-08-09T03:47:13.753Z,97737.86
2018-08-09T03:47:45.353Z,97735.38
2018-08-09T03:48:16.989Z,97737.70
2018-08-09T03:48:48.566Z,97743.90
2018-08-09T03:49:20.138Z,97736.48
2018-08-09T03:49:51.723Z,97736.44
2018-08-09T03:50:23.313Z,97731.23
2018-08-09T03:50:54.953Z,97741.12
2018-08-09T03:51:26.539Z,97735.59
2018-08-09T03:51:58.117Z,97736.13
2018-08-09T03:52:29.744Z,97740.18
2018-08-09T03:53:01.329Z,97742.85
2018-08-09T03:53:32.927Z,97737.14
2018-08-09T03:54:04.556Z,97743.60
2018-08-09T03:54:36.144Z,97746.75
2018-08-09T03:55:07.735Z,97745.59
2018-08-09T03:55:39.334Z,97746.61
2018-08-09T03:56:10.935Z,97742.72
2018-08-09T03:56:42.533Z,97745.33
2018-08-09T03:57:14.130Z,97746.34
2018-08-09T03:57:45.709Z,97737.93
2018-08-09T03:58:17.354Z,97738.10
2018-08-09T03:58:48.973Z,97745.36
2018-08-09T03:59:20.567Z,97749.23
2018-08-09T03:59:52.209Z,97751.02
2018-08-09T04:00:23.795Z,97749.34
2018-08-09T04:00:55.393Z,97748.97
2018-08-09T04:01:26.988Z,97751.55
2018-08-09T04:01:58.577Z,97753.80
2018-08-09T04:02:30.212Z,97751.23
2018-08-09T04:03:01.819Z,97752.92
2018-08-09T04:03:33.398Z,97752.92
2018-08-09T04:04:05.016Z,97750.83
2018-08-09T04:04:36.597Z,97756.80
2018-08-09T04:05:08.186Z,97754.05
2018-08-09T04:05:39.773Z,97751.78
2018-08-09T04:06:11.377Z,97752.05
2018-08-09T04:06:42.963Z,97755.73
2018-08-09T04:07:14.591Z,97755.73
2018-08-09T04:07:46.175Z,97758.84
2018-08-09T04:08:17.779Z,97758.00
2018-08-09T04:08:49.412Z,97758.02
2018-08-09T04:09:21.013Z,97753.29
2018-08-09T04:09:52.609Z,97760.09
2018-08-09T04:10:24.210Z,97758.78
2018-08-09T04:10:55.791Z,97758.30
2018-08-09T04:11:27.375Z,97758.81
2018-08-09T04:11:59.026Z,97758.13
2018-08-09T04:12:30.590Z,97760.86
2018-08-09T04:13:02.186Z,97765.30
2018-08-09T04:13:33.771Z,97764.91
2018-08-09T04:14:05.405Z,97761.92
2018-08-09T04:14:36.978Z,97754.39
2018-08-09T04:15:08.581Z,97756.02
2018-08-09T04:15:40.187Z,97761.98
2018-08-09T04:16:11.773Z,97763.61
2018-08-09T04:16:43.354Z,97758.81
2018-08-09T04:17:14.935Z,97761.70
2018-08-09T04:17:46.537Z,97757.89
2018-08-09T04:18:18.128Z,97764.78
2018-08-09T04:18:49.715Z,97762.59
2018-08-09T04:19:21.312Z,97765.56
2018-08-09T04:19:52.899Z,97764.34
2018-08-09T04:20:24.574Z,97763.52
2018-08-09T04:20:56.156Z,97760.44
2018-08-09T04:21:27.793Z,97760.79
2018-08-09T04:21:59.389Z,97759.89
2018-08-09T04:22:30.979Z,97760.64
2018-08-09T04:23:02.559Z,97760.00
2018-08-09T04:23:34.153Z,97757.64
2018-08-09T04:24:05.733Z,97760.55
2018-08-09T04:24:37.377Z,97758.39
2018-08-09T04:25:08.951Z,97761.40
2018-08-09T04:25:40.548Z,97752.95
2018-08-09T04:26:12.125Z,97757.66
2018-08-09T04:26:43.710Z,97764.98
2018-08-09T04:27:15.339Z,97760.40
2018-08-09T04:27:46.924Z,97759.95
2018-08-09T04:28:18.511Z,97759.91
2018-08-09T04:28:50.110Z,97760.73
2018-08-09T04:29:21.682Z,97758.52
2018-08-09T04:29:53.268Z,97761.92
2018-08-09T04:30:24.901Z,97760.52
2018-08-09T04:30:56.508Z,97759.45
2018-08-09T04:31:28.086Z,97758.55
2018-08-09T04:31:59.681Z,97763.56
2018-08-09T04:32:31.281Z,97761.08
2018-08-09T04:33:02.881Z,97767.08
2018-08-09T04:33:34.481Z,97767.38
2018-08-09T04:34:06.079Z,97770.91
2018-08-09T04:34:37.676Z,97763.31
2018-08-09T04:35:09.307Z,97765.00
2018-08-09T04:35:40.909Z,97766.70
2018-08-09T04:36:12.498Z,97768.45
2018-08-09T04:36:44.087Z,97762.88
2018-08-09T04:37:15.675Z,97769.28
2018-08-09T04:37:47.260Z,97771.41
2018-08-09T04:38:18.833Z,97764.91
2018-08-09T04:38:50.421Z,97767.45
2018-08-09T04:39:22.003Z,97774.13
2018-08-09T04:39:53.605Z,97766.77
2018-08-09T04:40:25.210Z,97764.92
2018-08-09T04:40:56.823Z,97763.55
2018-08-09T04:41:28.417Z,97760.47
2018-08-09T04:42:00.065Z,97763.92
2018-08-09T04:42:31.710Z,97767.06
2018-08-09T04:43:03.303Z,97765.87
2018-08-09T04:43:34.950Z,97761.31
2018-08-09T04:44:06.540Z,97761.91
2018-08-09T04:44:38.136Z,97770.89
2018-08-09T04:45:09.723Z,97760.22
2018-08-09T04:45:41.310Z,97762.47
2018-08-09T04:46:12.906Z,97765.53
2018-08-09T04:46:44.505Z,97762.14
2018-08-09T04:47:16.139Z,97762.14
2018-08-09T04:47:47.733Z,97762.94
2018-08-09T04:48:19.334Z,97762.94
2018-08-09T04:48:50.923Z,97760.08
2018-08-09T04:49:22.555Z,97756.71
2018-08-09T04:49:54.147Z,97758.42
2018-08-09T04:50:25.729Z,97758.42
2018-08-09T04:50:57.327Z,97757.98
2018-08-09T04:51:28.915Z,97751.97
2018-08-09T04:52:00.531Z,97748.86
2018-08-09T04:52:32.159Z,97748.75
2018-08-09T04:53:03.753Z,97755.95
2018-08-09T04:53:35.379Z,97747.70
2018-08-09T04:54:06.973Z,97754.81
2018-08-09T04:54:38.559Z,97755.63
2018-08-09T04:55:10.137Z,97760.59
2018-08-09T04:55:41.729Z,97760.97
2018-08-09T04:56:13.324Z,97764.43
2018-08-09T04:56:44.911Z,97764.62
2018-08-09T04:57:16.505Z,97766.00
2018-08-09T04:57:48.145Z,97765.33
2018-08-09T04:58:19.867Z,97767.05
2018-08-09T04:58:51.455Z,97757.56
2018-08-09T04:59:23.043Z,97768.47
2018-08-09T04:59:54.630Z,97772.56
2018-08-09T05:00:26.227Z,97763.37
2018-08-09T05:00:57.841Z,97768.70
2018-08-09T05:01:29.444Z,97763.91
2018-08-09T05:02:01.032Z,97763.70
2018-08-09T05:02:32.618Z,97760.11
2018-08-09T05:03:04.204Z,97765.57
2018-08-09T05:03:35.842Z,97762.52
2018-08-09T05:04:07.431Z,97761.28
2018-08-09T05:04:39.029Z,97767.86
2018-08-09T05:05:10.625Z,97762.40
2018-08-09T05:05:42.202Z,97763.37
2018-08-09T05:06:13.790Z,97764.27
2018-08-09T05:06:45.375Z,97762.22
2018-08-09T05:07:16.964Z,97768.70
2018-08-09T05:07:48.554Z,97767.23
2018-08-09T05:08:20.145Z,97764.87
2018-08-09T05:08:51.727Z,97768.55
2018-08-09T05:09:23.330Z,97766.40
2018-08-09T05:09:54.915Z,97766.68
2018-08-09T05:10:26.581Z,97764.83
2018-08-09T05:10:58.114Z,97764.81
2018-08-09T05:11:29.713Z,97766.02
2018-08-09T05:12:01.300Z,97767.64
2018-08-09T05:12:32.883Z,97767.53
2018-08-09T05:13:04.511Z,97765.73
2018-08-09T05:13:36.096Z,97763.13
2018-08-09T05:14:07.692Z,97767.40
2018-08-09T05:14:39.283Z,97769.91
2018-08-09T05:15:10.888Z,97765.53
2018-08-09T05:15:42.489Z,97764.66
2018-08-09T05:16:14.090Z,97765.00
2018-08-09T05:16:45.697Z,97766.69
2018-08-09T05:17:17.293Z,97767.13
2018-08-09T05:17:48.937Z,97762.02
2018-08-09T05:18:20.568Z,97759.13
2018-08-09T05:18:52.146Z,97764.67
2018-08-09T05:19:23.748Z,97758.35
2018-08-09T05:19:55.343Z,97761.91
2018-08-09T05:20:26.981Z,97761.52
2018-08-09T05:20:58.573Z,97766.58
2018-08-09T05:21:30.154Z,97764.41
2018-08-09T05:22:01.750Z,97763.88
2018-08-09T05:22:33.376Z,97760.78
2018-08-09T05:23:05.011Z,97761.11
2018-08-09T05:23:36.629Z,97763.01
2018-08-09T05:24:08.223Z,97762.02
2018-08-09T05:24:39.825Z,97761.45
2018-08-09T05:25:11.430Z,97761.39
2018-08-09T05:25:43.033Z,97762.20
2018-08-09T05:26:14.623Z,97757.44
2018-08-09T05:26:46.212Z,97765.98
2018-08-09T05:27:17.825Z,97760.78
2018-08-09T05:27:49.472Z,97757.83
2018-08-09T05:28:21.070Z,97759.56
2018-08-09T05:28:52.677Z,97758.57
2018-08-09T05:29:24.267Z,97756.33
2018-08-09T05:29:55.903Z,97762.67
2018-08-09T05:30:27.497Z,97756.27
2018-08-09T05:30:59.101Z,97759.70
2018-08-09T05:31:30.687Z,97757.62
2018-08-09T05:32:02.275Z,97760.64
2018-08-09T05:32:33.893Z,97735.17
2018-08-09T05:33:05.483Z,97757.00
2018-08-09T05:33:37.071Z,97756.66
2018-08-09T05:34:08.727Z,97758.52
2018-08-09T05:34:40.325Z,97756.53
2018-08-09T05:35:11.965Z,97761.27
2018-08-09T05:35:43.551Z,97754.98
2018-08-09T05:36:15.135Z,97753.34
2018-08-09T05:36:46.727Z,97762.61
2018-08-09T05:37:18.329Z,97761.17
2018-08-09T05:37:49.929Z,97764.47
2018-08-09T05:38:21.509Z,97761.30
2018-08-09T05:38:53.102Z,97764.56
2018-08-09T05:39:24.704Z,97762.75
2018-08-09T05:39:56.348Z,97757.08
2018-08-09T05:40:27.945Z,97758.71
2018-08-09T05:40:59.562Z,97757.39
2018-08-09T05:41:31.142Z,97764.97
2018-08-09T05:42:02.727Z,97762.31
2018-08-09T05:42:34.322Z,97763.58
2018-08-09T05:43:05.928Z,97761.56
2018-08-09T05:43:37.531Z,97760.81
2018-08-09T05:44:09.150Z,97764.67
2018-08-09T05:44:40.738Z,97762.06
2018-08-09T05:45:12.367Z,97764.65
2018-08-09T05:45:43.959Z,97760.09
2018-08-09T05:46:15.543Z,97761.09
2018-08-09T05:46:47.145Z,97765.38
2018-08-09T05:47:18.745Z,97765.80
2018-08-09T05:47:50.331Z,97765.69
2018-08-09T05:48:21.907Z,97758.71
2018-08-09T05:48:53.521Z,97761.13
2018-08-09T05:49:25.163Z,97760.56
2018-08-09T05:49:56.751Z,97763.88
2018-08-09T05:50:28.346Z,97761.23
2018-08-09T05:50:59.960Z,97760.37
2018-08-09T05:51:31.585Z,97760.37
2018-08-09T05:52:03.176Z,97761.22
2018-08-09T05:52:34.794Z,97763.34
2018-08-09T05:53:06.433Z,97764.67
2018-08-09T05:53:38.010Z,97762.50
2018-08-09T05:54:09.594Z,97765.09
2018-08-09T05:54:41.235Z,97761.66
2018-08-09T05:55:12.830Z,97760.35
2018-08-09T05:55:44.429Z,97763.27
2018-08-09T05:56:16.020Z,97760.27
2018-08-09T05:56:47.603Z,97763.16
2018-08-09T05:57:19.177Z,97761.41
2018-08-09T05:57:50.821Z,97767.37
2018-08-09T05:58:22.423Z,97761.77
2018-08-09T05:58:54.017Z,97765.63
2018-08-09T05:59:25.591Z,97762.94
2018-08-09T05:59:57.175Z,97761.75
2018-08-09T06:00:28.769Z,97762.19
2018-08-09T06:01:00.360Z,97756.30
2018-08-09T06:01:31.965Z,97760.49
2018-08-09T06:02:03.555Z,97758.42
2018-08-09T06:02:35.143Z,97761.64
2018-08-09T06:03:06.774Z,97756.05
2018-08-09T06:03:38.359Z,97764.11
2018-08-09T06:04:09.937Z,97762.90
2018-08-09T06:04:41.524Z,97765.06
2018-08-09T06:05:13.151Z,97762.38
2018-08-09T06:05:44.821Z,97764.88
2018-08-09T06:06:16.387Z,97766.13
2018-08-09T06:06:47.989Z,97769.98
2018-08-09T06:07:19.594Z,97763.14
2018-08-09T06:07:51.169Z,97762.63
2018-08-09T06:08:22.755Z,97762.09
2018-08-09T06:08:54.342Z,97764.61
2018-08-09T06:09:25.928Z,97762.37
2018-08-09T06:09:57.507Z,97771.72
2018-08-09T06:10:29.309Z,97762.69
2018-08-09T06:11:00.891Z,97767.70